sensor_id;sensor_type;location;lat;lon;timestamp;pressure;altitude;pressure_sealevel;temperature;humidity
62544;BME280;48597;49.030;1.822;2023-05-01T00:01:03;100982.53;;;19.61;47.38
62544;BME280;48597;49.030;1.822;2023-05-01T00:03:30;100979.66;;;19.61;47.29
62544;BME280;48597;49.030;1.822;2023-05-01T00:06:00;100975.56;;;19.62;47.19
62544;BME280;48597;49.030;1.822;2023-05-01T00:08:26;100973.94;;;19.61;47.25
62544;BME280;48597;49.030;1.822;2023-05-01T00:10:51;100972.31;;;19.60;47.19
62544;BME280;48597;49.030;1.822;2023-05-01T00:13:16;100978.06;;;19.60;47.13
62544;BME280;48597;49.030;1.822;2023-05-01T00:15:46;100967.88;;;19.59;47.18
62544;BME280;48597;49.030;1.822;2023-05-01T00:18:12;100967.88;;;19.59;47.25
62544;BME280;48597;49.030;1.822;2023-05-01T00:20:38;100966.28;;;19.58;47.18
62544;BME280;48597;49.030;1.822;2023-05-01T00:23:03;100969.13;;;19.58;47.15
62544;BME280;48597;49.030;1.822;2023-05-01T00:25:28;100967.53;;;19.57;47.18
62544;BME280;48597;49.030;1.822;2023-05-01T00:27:55;100963.88;;;19.57;47.16
62544;BME280;48597;49.030;1.822;2023-05-01T00:30:20;100963.06;;;19.56;47.18
62544;BME280;48597;49.030;1.822;2023-05-01T00:32:46;100955.72;;;19.55;47.11
62544;BME280;48597;49.030;1.822;2023-05-01T00:35:11;100950.00;;;19.55;47.13
62544;BME280;48597;49.030;1.822;2023-05-01T00:37:37;100957.78;;;19.55;47.13
62544;BME280;48597;49.030;1.822;2023-05-01T00:40:03;100946.34;;;19.55;47.04
62544;BME280;48597;49.030;1.822;2023-05-01T00:42:33;100950.00;;;19.55;47.13
62544;BME280;48597;49.030;1.822;2023-05-01T00:44:59;100943.50;;;19.55;47.01
62544;BME280;48597;49.030;1.822;2023-05-01T00:47:24;100931.69;;;19.53;47.05
62544;BME280;48597;49.030;1.822;2023-05-01T00:49:51;100934.56;;;19.53;47.03
62544;BME280;48597;49.030;1.822;2023-05-01T00:52:16;100932.94;;;19.52;47.04
62544;BME280;48597;49.030;1.822;2023-05-01T00:54:42;100939.91;;;19.51;47.10
62544;BME280;48597;49.030;1.822;2023-05-01T00:57:07;100934.19;;;19.51;47.03
62544;BME280;48597;49.030;1.822;2023-05-01T00:59:33;100931.31;;;19.51;47.10
62544;BME280;48597;49.030;1.822;2023-05-01T01:01:59;100943.56;;;19.51;47.12
62544;BME280;48597;49.030;1.822;2023-05-01T01:04:25;100924.81;;;19.50;46.90
62544;BME280;48597;49.030;1.822;2023-05-01T01:15:22;100915.84;;;19.48;47.04
62544;BME280;48597;49.030;1.822;2023-05-01T01:18:18;100906.44;;;19.48;47.02
62544;BME280;48597;49.030;1.822;2023-05-01T01:21:00;100909.78;;;19.46;47.08
62544;BME280;48597;49.030;1.822;2023-05-01T01:34:14;100910.22;;;19.45;46.99
62544;BME280;48597;49.030;1.822;2023-05-01T01:36:48;100900.84;;;19.44;47.02
62544;BME280;48597;49.030;1.822;2023-05-01T01:39:26;100904.97;;;19.43;46.87
62544;BME280;48597;49.030;1.822;2023-05-01T01:41:56;100906.22;;;19.42;47.01
62544;BME280;48597;49.030;1.822;2023-05-01T01:44:38;100896.81;;;19.42;47.04
62544;BME280;48597;49.030;1.822;2023-05-01T01:47:10;100897.63;;;19.42;47.05
62544;BME280;48597;49.030;1.822;2023-05-01T01:49:38;100904.59;;;19.41;46.99
62544;BME280;48597;49.030;1.822;2023-05-01T01:52:06;100907.44;;;19.41;46.98
62544;BME280;48597;49.030;1.822;2023-05-01T01:54:39;100911.13;;;19.42;46.99
62544;BME280;48597;49.030;1.822;2023-05-01T01:57:06;100904.59;;;19.41;46.98
62544;BME280;48597;49.030;1.822;2023-05-01T01:59:33;100893.59;;;19.40;46.92
62544;BME280;48597;49.030;1.822;2023-05-01T02:02:03;100903.00;;;19.40;46.96
62544;BME280;48597;49.030;1.822;2023-05-01T02:04:30;100893.59;;;19.40;47.00
62544;BME280;48597;49.030;1.822;2023-05-01T02:06:57;100907.09;;;19.39;46.87
62544;BME280;48597;49.030;1.822;2023-05-01T02:09:25;100906.28;;;19.39;46.97
62544;BME280;48597;49.030;1.822;2023-05-01T02:11:53;100902.63;;;19.38;46.84
62544;BME280;48597;49.030;1.822;2023-05-01T02:14:24;100901.81;;;19.38;46.91
62544;BME280;48597;49.030;1.822;2023-05-01T02:16:51;100903.88;;;19.37;46.94
62544;BME280;48597;49.030;1.822;2023-05-01T02:19:17;100902.63;;;19.38;47.02
62544;BME280;48597;49.030;1.822;2023-05-01T02:21:44;100904.31;;;19.36;46.91
62544;BME280;48597;49.030;1.822;2023-05-01T02:24:11;100900.22;;;19.37;46.89
62544;BME280;48597;49.030;1.822;2023-05-01T02:26:40;100896.53;;;19.36;46.81
62544;BME280;48597;49.030;1.822;2023-05-01T02:29:07;100901.47;;;19.36;46.92
62544;BME280;48597;49.030;1.822;2023-05-01T02:31:33;100902.72;;;19.35;46.91
62544;BME280;48597;49.030;1.822;2023-05-01T02:33:58;100897.78;;;19.35;46.84
62544;BME280;48597;49.030;1.822;2023-05-01T02:36:24;100899.06;;;19.34;46.88
62544;BME280;48597;49.030;1.822;2023-05-01T02:38:49;100898.25;;;19.34;46.87
62544;BME280;48597;49.030;1.822;2023-05-01T02:41:15;100890.94;;;19.33;46.83
62544;BME280;48597;49.030;1.822;2023-05-01T02:43:42;100901.13;;;19.34;46.89
62544;BME280;48597;49.030;1.822;2023-05-01T02:46:10;100903.97;;;19.34;46.88
62544;BME280;48597;49.030;1.822;2023-05-01T02:48:37;100895.06;;;19.32;46.90
62544;BME280;48597;49.030;1.822;2023-05-01T02:51:05;100899.16;;;19.31;46.88
62544;BME280;48597;49.030;1.822;2023-05-01T02:53:31;100893.00;;;19.32;46.85
62544;BME280;48597;49.030;1.822;2023-05-01T02:55:57;100907.72;;;19.31;46.86
62544;BME280;48597;49.030;1.822;2023-05-01T02:58:23;100902.00;;;19.31;46.90
62544;BME280;48597;49.030;1.822;2023-05-01T03:00:48;100909.78;;;19.30;46.81
62544;BME280;48597;49.030;1.822;2023-05-01T03:03:14;100896.75;;;19.29;46.83
62544;BME280;48597;49.030;1.822;2023-05-01T03:05:40;100903.25;;;19.30;46.82
62544;BME280;48597;49.030;1.822;2023-05-01T03:08:06;100911.03;;;19.29;46.80
62544;BME280;48597;49.030;1.822;2023-05-01T03:10:32;100901.66;;;19.28;46.74
62544;BME280;48597;49.030;1.822;2023-05-01T03:12:57;100897.97;;;19.28;46.72
62544;BME280;48597;49.030;1.822;2023-05-01T03:15:23;100899.59;;;19.29;46.64
62544;BME280;48597;49.030;1.822;2023-05-01T03:17:48;100894.31;;;19.27;46.79
62544;BME280;48597;49.030;1.822;2023-05-01T03:20:13;100907.81;;;19.27;46.80
62544;BME280;48597;49.030;1.822;2023-05-01T03:22:40;100895.56;;;19.26;46.76
62544;BME280;48597;49.030;1.822;2023-05-01T03:25:06;100897.63;;;19.26;46.82
62544;BME280;48597;49.030;1.822;2023-05-01T03:27:31;100897.63;;;19.26;46.75
62544;BME280;48597;49.030;1.822;2023-05-01T03:29:57;100911.91;;;19.26;46.76
62544;BME280;48597;49.030;1.822;2023-05-01T03:32:22;100898.44;;;19.26;46.61
62544;BME280;48597;49.030;1.822;2023-05-01T03:34:47;100895.22;;;19.24;46.68
62544;BME280;48597;49.030;1.822;2023-05-01T03:37:13;100897.63;;;19.26;46.73
62544;BME280;48597;49.030;1.822;2023-05-01T03:39:39;100891.09;;;19.25;46.65
62544;BME280;48597;49.030;1.822;2023-05-01T03:42:05;100894.41;;;19.24;46.69
62544;BME280;48597;49.030;1.822;2023-05-01T03:44:30;100891.53;;;19.24;46.79
62544;BME280;48597;49.030;1.822;2023-05-01T03:46:56;100896.00;;;19.25;46.78
62544;BME280;48597;49.030;1.822;2023-05-01T03:49:22;100891.53;;;19.24;46.58
62544;BME280;48597;49.030;1.822;2023-05-01T03:51:47;100894.41;;;19.24;46.48
62544;BME280;48597;49.030;1.822;2023-05-01T03:54:13;100894.41;;;19.24;46.40
62544;BME280;48597;49.030;1.822;2023-05-01T03:56:38;100892.78;;;19.23;46.44
62544;BME280;48597;49.030;1.822;2023-05-01T03:59:04;100899.31;;;19.23;46.51
62544;BME280;48597;49.030;1.822;2023-05-01T04:01:29;100893.59;;;19.23;46.42
62544;BME280;48597;49.030;1.822;2023-05-01T04:03:57;100899.31;;;19.23;46.50
62544;BME280;48597;49.030;1.822;2023-05-01T04:06:23;100897.25;;;19.24;46.42
62544;BME280;48597;49.030;1.822;2023-05-01T04:08:48;100887.44;;;19.25;46.47
62544;BME280;48597;49.030;1.822;2023-05-01T04:11:14;100899.69;;;19.25;46.49
62544;BME280;48597;49.030;1.822;2023-05-01T04:13:39;100901.72;;;19.25;46.56
62544;BME280;48597;49.030;1.822;2023-05-01T04:16:05;100904.16;;;19.26;46.71
62544;BME280;48597;49.030;1.822;2023-05-01T04:18:30;100893.50;;;19.27;46.59
62544;BME280;48597;49.030;1.822;2023-05-01T04:20:56;100898.44;;;19.26;46.49
62544;BME280;48597;49.030;1.822;2023-05-01T04:23:21;100893.50;;;19.27;46.58
62544;BME280;48597;49.030;1.822;2023-05-01T04:25:46;100895.13;;;19.28;46.55
62544;BME280;48597;49.030;1.822;2023-05-01T04:28:12;100891.81;;;19.30;46.64
62544;BME280;48597;49.030;1.822;2023-05-01T04:30:37;100899.16;;;19.31;46.80
62544;BME280;48597;49.030;1.822;2023-05-01T04:33:03;100908.09;;;19.33;46.71
62544;BME280;48597;49.030;1.822;2023-05-01T04:35:38;100903.19;;;19.33;46.70
62544;BME280;48597;49.030;1.822;2023-05-01T04:38:04;100904.78;;;19.34;46.75
62544;BME280;48597;49.030;1.822;2023-05-01T04:40:30;100901.94;;;19.34;46.51
62544;BME280;48597;49.030;1.822;2023-05-01T04:42:55;100907.97;;;19.36;46.59
62544;BME280;48597;49.030;1.822;2023-05-01T04:45:21;100912.44;;;19.37;46.72
62544;BME280;48597;49.030;1.822;2023-05-01T04:47:46;100906.28;;;19.39;46.75
62544;BME280;48597;49.030;1.822;2023-05-01T04:50:11;100912.81;;;19.39;46.71
62544;BME280;48597;49.030;1.822;2023-05-01T04:52:37;100912.38;;;19.41;46.80
62544;BME280;48597;49.030;1.822;2023-05-01T04:55:02;100907.44;;;19.41;46.77
62544;BME280;48597;49.030;1.822;2023-05-01T04:57:28;100909.44;;;19.44;46.75
62544;BME280;48597;49.030;1.822;2023-05-01T04:59:54;100915.94;;;19.45;46.67
62544;BME280;48597;49.030;1.822;2023-05-01T05:02:19;100918.38;;;19.46;46.75
62544;BME280;48597;49.030;1.822;2023-05-01T05:04:44;100920.75;;;19.48;46.63
62544;BME280;48597;49.030;1.822;2023-05-01T05:07:10;100933.00;;;19.48;46.77
62544;BME280;48597;49.030;1.822;2023-05-01T05:09:35;100929.72;;;19.50;46.74
62544;BME280;48597;49.030;1.822;2023-05-01T05:12:01;100934.19;;;19.51;46.77
62544;BME280;48597;49.030;1.822;2023-05-01T05:14:28;100931.31;;;19.51;46.73
62544;BME280;48597;49.030;1.822;2023-05-01T05:16:54;100933.75;;;19.52;46.65
62544;BME280;48597;49.030;1.822;2023-05-01T05:19:19;100942.69;;;19.54;46.52
62544;BME280;48597;49.030;1.822;2023-05-01T05:21:44;100942.25;;;19.56;46.70
62544;BME280;48597;49.030;1.822;2023-05-01T05:24:10;100941.44;;;19.55;46.61
62544;BME280;48597;49.030;1.822;2023-05-01T05:26:35;100935.28;;;19.57;46.57
62544;BME280;48597;49.030;1.822;2023-05-01T05:29:00;100938.94;;;19.57;46.75
62544;BME280;48597;49.030;1.822;2023-05-01T05:31:26;100933.22;;;19.57;46.57
62544;BME280;48597;49.030;1.822;2023-05-01T05:33:51;100930.72;;;19.59;46.62
62544;BME280;48597;49.030;1.822;2023-05-01T05:36:17;100940.88;;;19.60;46.70
62544;BME280;48597;49.030;1.822;2023-05-01T05:38:42;100942.50;;;19.61;46.55
62544;BME280;48597;49.030;1.822;2023-05-01T05:41:07;100936.31;;;19.63;46.40
62544;BME280;48597;49.030;1.822;2023-05-01T05:43:33;100935.53;;;19.62;46.72
62544;BME280;48597;49.030;1.822;2023-05-01T05:45:59;100938.75;;;19.65;46.50
62544;BME280;48597;49.030;1.822;2023-05-01T05:48:24;100937.50;;;19.66;46.50
62544;BME280;48597;49.030;1.822;2023-05-01T05:50:50;100945.63;;;19.67;46.49
62544;BME280;48597;49.030;1.822;2023-05-01T05:53:19;100938.66;;;19.68;46.40
62544;BME280;48597;49.030;1.822;2023-05-01T05:55:48;100931.69;;;19.69;46.44
62544;BME280;48597;49.030;1.822;2023-05-01T05:58:14;100934.09;;;19.71;46.34
62544;BME280;48597;49.030;1.822;2023-05-01T06:00:49;100941.44;;;19.72;46.58
62544;BME280;48597;49.030;1.822;2023-05-01T06:03:15;100938.13;;;19.73;46.46
62544;BME280;48597;49.030;1.822;2023-05-01T06:05:44;100934.34;;;19.76;46.59
62544;BME280;48597;49.030;1.822;2023-05-01T06:08:10;100936.41;;;19.76;46.45
62544;BME280;48597;49.030;1.822;2023-05-01T06:10:36;100942.47;;;19.78;46.41
62544;BME280;48597;49.030;1.822;2023-05-01T06:13:03;100946.97;;;19.79;46.26
62544;BME280;48597;49.030;1.822;2023-05-01T06:15:29;100942.84;;;19.80;46.49
62544;BME280;48597;49.030;1.822;2023-05-01T06:17:55;100941.16;;;19.82;46.31
62544;BME280;48597;49.030;1.822;2023-05-01T06:20:20;100943.19;;;19.82;46.37
62544;BME280;48597;49.030;1.822;2023-05-01T06:22:46;100941.50;;;19.84;46.49
62544;BME280;48597;49.030;1.822;2023-05-01T06:25:12;100939.44;;;19.85;46.29
62544;BME280;48597;49.030;1.822;2023-05-01T06:27:37;100950.41;;;19.86;46.34
62544;BME280;48597;49.030;1.822;2023-05-01T06:30:03;100949.97;;;19.88;46.26
62544;BME280;48597;49.030;1.822;2023-05-01T06:32:29;100955.25;;;19.89;46.26
62544;BME280;48597;49.030;1.822;2023-05-01T06:34:54;100954.81;;;19.91;46.24
62544;BME280;48597;49.030;1.822;2023-05-01T06:37:20;100950.69;;;19.92;46.21
62544;BME280;48597;49.030;1.822;2023-05-01T06:39:46;100951.06;;;19.94;46.20
62544;BME280;48597;49.030;1.822;2023-05-01T06:42:12;100949.00;;;19.94;46.15
62544;BME280;48597;49.030;1.822;2023-05-01T06:44:40;100950.59;;;19.95;46.29
62544;BME280;48597;49.030;1.822;2023-05-01T06:47:06;100958.75;;;19.97;46.11
62544;BME280;48597;49.030;1.822;2023-05-01T06:49:31;100950.97;;;19.97;46.07
62544;BME280;48597;49.030;1.822;2023-05-01T06:51:58;100958.28;;;19.98;46.06
62544;BME280;48597;49.030;1.822;2023-05-01T06:54:23;100952.09;;;20.00;46.16
62544;BME280;48597;49.030;1.822;2023-05-01T06:56:48;100952.09;;;20.00;46.07
62544;BME280;48597;49.030;1.822;2023-05-01T06:59:14;100952.09;;;20.00;46.07
62544;BME280;48597;49.030;1.822;2023-05-01T07:01:39;100962.28;;;20.01;46.09
62544;BME280;48597;49.030;1.822;2023-05-01T07:04:04;100961.03;;;20.02;45.97
62544;BME280;48597;49.030;1.822;2023-05-01T07:06:30;100956.94;;;20.03;46.11
62544;BME280;48597;49.030;1.822;2023-05-01T07:08:56;100959.78;;;20.03;46.07
62544;BME280;48597;49.030;1.822;2023-05-01T07:11:22;100960.59;;;20.04;46.08
62544;BME280;48597;49.030;1.822;2023-05-01T07:13:47;100971.59;;;20.05;45.96
62544;BME280;48597;49.030;1.822;2023-05-01T07:16:13;100968.72;;;20.05;45.87
62544;BME280;48597;49.030;1.822;2023-05-01T07:18:38;100972.41;;;20.06;45.93
62544;BME280;48597;49.030;1.822;2023-05-01T07:21:04;100976.06;;;20.06;46.01
62544;BME280;48597;49.030;1.822;2023-05-01T07:23:29;100978.13;;;20.06;45.98
62544;BME280;48597;49.030;1.822;2023-05-01T07:25:55;100976.06;;;20.06;45.91
62544;BME280;48597;49.030;1.822;2023-05-01T07:28:21;100985.44;;;20.07;45.97
62544;BME280;48597;49.030;1.822;2023-05-01T07:30:47;100978.47;;;20.08;46.03
62544;BME280;48597;49.030;1.822;2023-05-01T07:33:12;100980.53;;;20.07;46.16
62544;BME280;48597;49.030;1.822;2023-05-01T07:35:38;100980.53;;;20.07;46.07
62544;BME280;48597;49.030;1.822;2023-05-01T07:38:03;100975.63;;;20.08;45.99
62544;BME280;48597;49.030;1.822;2023-05-01T07:40:31;100982.16;;;20.08;46.10
62544;BME280;48597;49.030;1.822;2023-05-01T07:42:57;100983.41;;;20.07;46.08
62544;BME280;48597;49.030;1.822;2023-05-01T07:45:22;100983.41;;;20.07;45.88
62544;BME280;48597;49.030;1.822;2023-05-01T07:47:47;100989.13;;;20.07;45.93
62544;BME280;48597;49.030;1.822;2023-05-01T07:50:13;100982.16;;;20.08;45.94
62544;BME280;48597;49.030;1.822;2023-05-01T07:52:39;100982.16;;;20.08;45.86
62544;BME280;48597;49.030;1.822;2023-05-01T07:55:05;100979.28;;;20.08;45.91
62544;BME280;48597;49.030;1.822;2023-05-01T07:57:30;100984.19;;;20.08;46.09
62544;BME280;48597;49.030;1.822;2023-05-01T07:59:59;100987.06;;;20.08;45.85
62544;BME280;48597;49.030;1.822;2023-05-01T08:02:24;100980.53;;;20.07;45.96
62544;BME280;48597;49.030;1.822;2023-05-01T08:04:50;100974.81;;;20.07;45.74
62544;BME280;48597;49.030;1.822;2023-05-01T08:07:15;100984.66;;;20.06;45.96
62544;BME280;48597;49.030;1.822;2023-05-01T08:09:41;100976.88;;;20.07;46.09
62544;BME280;48597;49.030;1.822;2023-05-01T08:12:06;100982.59;;;20.07;45.98
62544;BME280;48597;49.030;1.822;2023-05-01T08:14:31;100988.31;;;20.07;45.89
62544;BME280;48597;49.030;1.822;2023-05-01T08:16:57;100986.72;;;20.06;45.75
62544;BME280;48597;49.030;1.822;2023-05-01T08:19:23;100990.38;;;20.06;45.89
62544;BME280;48597;49.030;1.822;2023-05-01T08:21:48;100996.91;;;20.07;45.87
62544;BME280;48597;49.030;1.822;2023-05-01T08:24:14;100994.47;;;20.05;45.80
62544;BME280;48597;49.030;1.822;2023-05-01T08:26:39;100993.22;;;20.06;45.85
62544;BME280;48597;49.030;1.822;2023-05-01T08:29:05;100993.69;;;20.05;45.84
62544;BME280;48597;49.030;1.822;2023-05-01T08:31:30;100990.00;;;20.04;45.97
62544;BME280;48597;49.030;1.822;2023-05-01T08:33:55;100998.59;;;20.04;45.90
62544;BME280;48597;49.030;1.822;2023-05-01T08:36:21;100995.72;;;20.04;45.89
62544;BME280;48597;49.030;1.822;2023-05-01T08:38:47;100992.06;;;20.04;45.86
62544;BME280;48597;49.030;1.822;2023-05-01T08:41:20;100989.22;;;20.04;45.78
62544;BME280;48597;49.030;1.822;2023-05-01T08:43:47;101003.50;;;20.04;45.93
62544;BME280;48597;49.030;1.822;2023-05-01T08:46:19;101003.50;;;20.04;46.10
62544;BME280;48597;49.030;1.822;2023-05-01T08:48:51;100993.31;;;20.03;46.06
62544;BME280;48597;49.030;1.822;2023-05-01T08:51:17;101001.91;;;20.03;45.99
62544;BME280;48597;49.030;1.822;2023-05-01T08:53:45;101008.44;;;20.03;46.12
62544;BME280;48597;49.030;1.822;2023-05-01T08:56:14;101012.53;;;20.02;46.15
62544;BME280;48597;49.030;1.822;2023-05-01T08:58:42;101004.75;;;20.03;46.23
62544;BME280;48597;49.030;1.822;2023-05-01T09:01:14;101006.00;;;20.02;46.25
62544;BME280;48597;49.030;1.822;2023-05-01T09:03:40;101014.59;;;20.02;46.33
62544;BME280;48597;49.030;1.822;2023-05-01T09:06:09;101010.13;;;20.01;46.69
62544;BME280;48597;49.030;1.822;2023-05-01T09:08:35;101009.31;;;20.00;46.54
62544;BME280;48597;49.030;1.822;2023-05-01T09:11:01;101010.13;;;20.01;46.71
62544;BME280;48597;49.030;1.822;2023-05-01T09:13:27;101010.13;;;20.01;46.59
62544;BME280;48597;49.030;1.822;2023-05-01T09:15:53;101010.59;;;19.99;46.83
62544;BME280;48597;49.030;1.822;2023-05-01T09:18:18;101002.78;;;19.99;46.65
62544;BME280;48597;49.030;1.822;2023-05-01T09:20:44;101017.09;;;19.99;46.91
62544;BME280;48597;49.030;1.822;2023-05-01T09:23:10;101012.66;;;19.98;46.92
62544;BME280;48597;49.030;1.822;2023-05-01T09:25:35;101016.31;;;19.99;46.91
62544;BME280;48597;49.030;1.822;2023-05-01T09:28:03;101013.47;;;19.99;46.94
62544;BME280;48597;49.030;1.822;2023-05-01T09:30:34;101019.19;;;19.99;46.99
62544;BME280;48597;49.030;1.822;2023-05-01T09:33:06;101019.19;;;19.99;47.44
62544;BME280;48597;49.030;1.822;2023-05-01T09:35:47;101013.91;;;19.97;47.02
62544;BME280;48597;49.030;1.822;2023-05-01T09:38:17;101025.34;;;19.97;47.18
62544;BME280;48597;49.030;1.822;2023-05-01T09:40:42;101026.59;;;19.96;47.35
62544;BME280;48597;49.030;1.822;2023-05-01T09:43:08;101019.63;;;19.97;47.19
62544;BME280;48597;49.030;1.822;2023-05-01T09:45:33;101030.28;;;19.97;47.14
62544;BME280;48597;49.030;1.822;2023-05-01T09:48:10;101021.69;;;19.97;46.97
62544;BME280;48597;49.030;1.822;2023-05-01T09:50:35;101020.06;;;19.96;47.66
62544;BME280;48597;49.030;1.822;2023-05-01T09:53:02;101025.78;;;19.96;47.72
62544;BME280;48597;49.030;1.822;2023-05-01T09:55:29;101024.19;;;19.95;47.53
62544;BME280;48597;49.030;1.822;2023-05-01T09:57:54;101029.91;;;19.95;47.69
62544;BME280;48597;49.030;1.822;2023-05-01T10:00:20;101024.19;;;19.95;47.83
62544;BME280;48597;49.030;1.822;2023-05-01T10:02:47;101018.47;;;19.95;47.84
62544;BME280;48597;49.030;1.822;2023-05-01T10:05:13;101017.66;;;19.94;47.93
62544;BME280;48597;49.030;1.822;2023-05-01T10:07:40;101029.09;;;19.94;48.14
62544;BME280;48597;49.030;1.822;2023-05-01T10:10:20;101018.47;;;19.95;48.36
62544;BME280;48597;49.030;1.822;2023-05-01T10:12:46;101017.66;;;19.94;48.38
62544;BME280;48597;49.030;1.822;2023-05-01T10:15:12;101009.06;;;19.94;48.63
62544;BME280;48597;49.030;1.822;2023-05-01T10:17:39;101014.78;;;19.94;48.50
62544;BME280;48597;49.030;1.822;2023-05-01T10:20:09;101009.88;;;19.95;48.69
62544;BME280;48597;49.030;1.822;2023-05-01T10:22:36;101014.00;;;19.94;48.55
62544;BME280;48597;49.030;1.822;2023-05-01T10:25:02;101004.59;;;19.93;48.55
62544;BME280;48597;49.030;1.822;2023-05-01T10:27:29;101009.06;;;19.94;48.42
62544;BME280;48597;49.030;1.822;2023-05-01T10:29:54;101009.06;;;19.94;48.45
62544;BME280;48597;49.030;1.822;2023-05-01T10:32:20;101002.09;;;19.95;48.40
62544;BME280;48597;49.030;1.822;2023-05-01T10:34:59;101004.59;;;19.93;48.21
62544;BME280;48597;49.030;1.822;2023-05-01T10:37:40;100999.69;;;19.94;48.27
62544;BME280;48597;49.030;1.822;2023-05-01T10:45:37;101020.97;;;19.93;48.64
62544;BME280;48597;49.030;1.822;2023-05-01T10:48:02;101008.72;;;19.92;48.75
62544;BME280;48597;49.030;1.822;2023-05-01T10:50:28;101007.91;;;19.92;48.83
62544;BME280;48597;49.030;1.822;2023-05-01T10:55:38;101015.25;;;19.93;49.33
62544;BME280;48597;49.030;1.822;2023-05-01T10:58:07;101025.88;;;19.92;49.45
62544;BME280;48597;49.030;1.822;2023-05-01T11:00:33;101009.53;;;19.93;49.49
62544;BME280;48597;49.030;1.822;2023-05-01T11:08:37;101005.41;;;19.94;49.50
62544;BME280;48597;49.030;1.822;2023-05-01T11:14:06;100988.25;;;19.94;49.77
62544;BME280;48597;49.030;1.822;2023-05-01T11:19:42;100993.97;;;19.94;50.14
62544;BME280;48597;49.030;1.822;2023-05-01T11:21:55;101003.78;;;19.93;50.34
62544;BME280;48597;49.030;1.822;2023-05-01T11:24:30;101010.31;;;19.93;50.24
62544;BME280;48597;49.030;1.822;2023-05-01T11:26:56;101015.25;;;19.93;50.39
62544;BME280;48597;49.030;1.822;2023-05-01T11:29:29;101007.47;;;19.93;49.93
62544;BME280;48597;49.030;1.822;2023-05-01T11:31:56;100998.06;;;19.93;50.40
62544;BME280;48597;49.030;1.822;2023-05-01T11:34:21;101004.59;;;19.93;50.66
62544;BME280;48597;49.030;1.822;2023-05-01T11:36:48;100997.63;;;19.94;50.32
62544;BME280;48597;49.030;1.822;2023-05-01T11:39:14;101002.53;;;19.94;50.44
62544;BME280;48597;49.030;1.822;2023-05-01T11:41:43;101002.53;;;19.94;50.49
62544;BME280;48597;49.030;1.822;2023-05-01T11:44:17;101004.16;;;19.95;50.32
62544;BME280;48597;49.030;1.822;2023-05-01T11:46:42;101006.22;;;19.94;50.59
62544;BME280;48597;49.030;1.822;2023-05-01T11:49:09;101004.16;;;19.95;50.30
62544;BME280;48597;49.030;1.822;2023-05-01T11:51:34;101006.22;;;19.94;50.33
62544;BME280;48597;49.030;1.822;2023-05-01T11:54:02;101006.22;;;19.94;50.73
62544;BME280;48597;49.030;1.822;2023-05-01T11:56:28;101002.91;;;19.96;50.56
62544;BME280;48597;49.030;1.822;2023-05-01T11:58:55;101005.78;;;19.96;50.62
62544;BME280;48597;49.030;1.822;2023-05-01T12:01:35;101014.72;;;19.98;50.39
62544;BME280;48597;49.030;1.822;2023-05-01T12:04:01;101022.50;;;19.97;50.39
62544;BME280;48597;49.030;1.822;2023-05-01T12:06:40;101006.13;;;19.98;50.17
62544;BME280;48597;49.030;1.822;2023-05-01T12:09:21;101031.88;;;19.98;49.88
62544;BME280;48597;49.030;1.822;2023-05-01T12:11:49;101021.25;;;19.98;50.09
62544;BME280;48597;49.030;1.822;2023-05-01T12:14:16;101020.44;;;19.98;50.17
62544;BME280;48597;49.030;1.822;2023-05-01T12:16:43;101014.72;;;19.98;49.75
62544;BME280;48597;49.030;1.822;2023-05-01T12:19:11;101014.72;;;19.98;49.94
62544;BME280;48597;49.030;1.822;2023-05-01T12:21:36;101031.06;;;19.97;49.98
62544;BME280;48597;49.030;1.822;2023-05-01T12:24:16;101029.81;;;19.98;49.82
62544;BME280;48597;49.030;1.822;2023-05-01T12:26:44;101032.69;;;19.98;50.02
62544;BME280;48597;49.030;1.822;2023-05-01T12:29:09;101028.53;;;19.99;49.88
62544;BME280;48597;49.030;1.822;2023-05-01T12:31:44;101029.81;;;19.98;49.93
62544;BME280;48597;49.030;1.822;2023-05-01T12:34:09;101026.97;;;19.98;50.04
62544;BME280;48597;49.030;1.822;2023-05-01T12:36:35;101028.22;;;19.97;50.17
62544;BME280;48597;49.030;1.822;2023-05-01T12:39:09;101012.66;;;19.98;49.96
62544;BME280;48597;49.030;1.822;2023-05-01T12:46:54;101025.69;;;19.99;50.37
62544;BME280;48597;49.030;1.822;2023-05-01T12:49:21;101033.50;;;19.99;50.83
62544;BME280;48597;49.030;1.822;2023-05-01T12:51:48;101030.63;;;19.99;51.05
62544;BME280;48597;49.030;1.822;2023-05-01T12:54:27;101039.53;;;20.01;50.87
62544;BME280;48597;49.030;1.822;2023-05-01T12:56:52;101040.00;;;19.99;51.51
62544;BME280;48597;49.030;1.822;2023-05-01T12:59:25;101037.13;;;19.99;51.34
62544;BME280;48597;49.030;1.822;2023-05-01T13:02:05;101029.34;;;20.00;51.31
62544;BME280;48597;49.030;1.822;2023-05-01T13:04:30;101030.63;;;19.99;51.75
62544;BME280;48597;49.030;1.822;2023-05-01T13:06:57;101037.13;;;19.99;51.90
62544;BME280;48597;49.030;1.822;2023-05-01T13:09:23;101030.97;;;20.01;51.72
62544;BME280;48597;49.030;1.822;2023-05-01T13:12:02;101037.94;;;20.00;51.50
62544;BME280;48597;49.030;1.822;2023-05-01T13:14:35;101032.22;;;20.00;51.80
62544;BME280;48597;49.030;1.822;2023-05-01T13:17:06;101039.22;;;19.99;51.64
62544;BME280;48597;49.030;1.822;2023-05-01T13:19:31;101040.78;;;20.00;52.14
62544;BME280;48597;49.030;1.822;2023-05-01T13:21:57;101036.34;;;19.99;52.12
62544;BME280;48597;49.030;1.822;2023-05-01T13:24:24;101040.78;;;20.00;52.09
62544;BME280;48597;49.030;1.822;2023-05-01T13:27:01;101039.53;;;20.01;52.01
62544;BME280;48597;49.030;1.822;2023-05-01T13:29:27;101041.97;;;20.03;51.98
62544;BME280;48597;49.030;1.822;2023-05-01T13:31:53;101036.25;;;20.03;52.34
62544;BME280;48597;49.030;1.822;2023-05-01T13:34:29;101041.88;;;20.06;52.13